sensor_id;sensor_type;location;lat;lon;timestamp;pressure;altitude;pressure_sealevel;temperature;humidity
20620;BME280;10469;42.720;23.252;2024-03-08T00:02:03;94941.88;;;5.23;100.00
20620;BME280;10469;42.720;23.252;2024-03-08T00:04:29;94940.47;;;5.27;100.00
20620;BME280;10469;42.720;23.252;2024-03-08T00:06:54;94939.84;;;5.25;100.00
20620;BME280;10469;42.720;23.252;2024-03-08T00:09:20;94944.38;;;5.32;100.00
20620;BME280;10469;42.720;23.252;2024-03-08T00:11:46;94935.53;;;5.24;100.00
20620;BME280;10469;42.720;23.252;2024-03-08T00:14:12;94934.31;;;5.20;100.00
20620;BME280;10469;42.720;23.252;2024-03-08T00:16:37;94932.84;;;5.11;100.00
20620;BME280;10469;42.720;23.252;2024-03-08T00:19:03;94936.38;;;5.18;100.00
20620;BME280;10469;42.720;23.252;2024-03-08T00:21:29;94946.59;;;5.28;100.00
20620;BME280;10469;42.720;23.252;2024-03-08T00:23:54;94937.59;;;5.22;100.00
20620;BME280;10469;42.720;23.252;2024-03-08T00:26:21;94928.59;;;5.30;100.00
20620;BME280;10469;42.720;23.252;2024-03-08T00:28:48;94939.59;;;5.14;100.00
20620;BME280;10469;42.720;23.252;2024-03-08T00:31:14;94934.06;;;5.09;100.00
20620;BME280;10469;42.720;23.252;2024-03-08T00:33:42;94938.63;;;5.35;100.00
20620;BME280;10469;42.720;23.252;2024-03-08T00:36:08;94931.03;;;5.18;100.00
20620;BME280;10469;42.720;23.252;2024-03-08T00:38:33;94932.25;;;5.16;100.00
20620;BME280;10469;42.720;23.252;2024-03-08T00:40:59;94915.91;;;5.25;100.00
20620;BME280;10469;42.720;23.252;2024-03-08T00:43:25;94926.09;;;5.02;100.00
20620;BME280;10469;42.720;23.252;2024-03-08T00:45:51;94919.78;;;5.16;100.00
20620;BME280;10469;42.720;23.252;2024-03-08T00:48:16;94937.19;;;5.19;100.00
20620;BME280;10469;42.720;23.252;2024-03-08T00:50:42;94926.91;;;5.02;100.00
20620;BME280;10469;42.720;23.252;2024-03-08T00:53:11;94922.19;;;5.04;100.00
20620;BME280;10469;42.720;23.252;2024-03-08T00:55:36;94921.59;;;5.02;100.00
20620;BME280;10469;42.720;23.252;2024-03-08T00:58:03;94905.81;;;4.88;100.00
20620;BME280;10469;42.720;23.252;2024-03-08T01:00:29;94904.97;;;4.81;100.00
20620;BME280;10469;42.720;23.252;2024-03-08T01:02:54;94916.25;;;4.96;100.00
20620;BME280;10469;42.720;23.252;2024-03-08T01:05:21;94911.81;;;5.16;100.00
20620;BME280;10469;42.720;23.252;2024-03-08T01:07:46;94917.09;;;5.03;100.00
20620;BME280;10469;42.720;23.252;2024-03-08T01:10:12;94918.31;;;5.14;100.00
20620;BME280;10469;42.720;23.252;2024-03-08T01:12:38;94907.69;;;5.00;100.00
20620;BME280;10469;42.720;23.252;2024-03-08T01:15:04;94904.41;;;4.98;100.00
20620;BME280;10469;42.720;23.252;2024-03-08T01:17:30;94904.03;;;5.01;100.00
20620;BME280;10469;42.720;23.252;2024-03-08T01:19:56;94894.38;;;4.94;100.00
20620;BME280;10469;42.720;23.252;2024-03-08T01:22:22;94898.91;;;5.07;100.00
20620;BME280;10469;42.720;23.252;2024-03-08T01:24:48;94898.50;;;5.03;100.00
20620;BME280;10469;42.720;23.252;2024-03-08T01:27:14;94891.97;;;5.12;100.00
20620;BME280;10469;42.720;23.252;2024-03-08T01:29:39;94890.13;;;5.06;100.00
20620;BME280;10469;42.720;23.252;2024-03-08T01:32:05;94878.38;;;4.74;100.00
20620;BME280;10469;42.720;23.252;2024-03-08T01:34:31;94906.44;;;4.90;100.00
20620;BME280;10469;42.720;23.252;2024-03-08T01:36:58;94884.72;;;4.73;100.00
20620;BME280;10469;42.720;23.252;2024-03-08T01:39:24;94881.50;;;4.91;100.00
20620;BME280;10469;42.720;23.252;2024-03-08T01:41:50;94890.75;;;5.15;100.00
20620;BME280;10469;42.720;23.252;2024-03-08T01:44:16;94883.38;;;5.10;100.00
20620;BME280;10469;42.720;23.252;2024-03-08T01:46:46;94883.59;;;5.15;100.00
20620;BME280;10469;42.720;23.252;2024-03-08T01:49:13;94881.16;;;5.27;100.00
20620;BME280;10469;42.720;23.252;2024-03-08T01:51:40;94875.84;;;5.34;100.00
20620;BME280;10469;42.720;23.252;2024-03-08T01:54:06;94890.53;;;5.16;100.00
20620;BME280;10469;42.720;23.252;2024-03-08T01:56:36;94887.09;;;5.36;100.00
20620;BME280;10469;42.720;23.252;2024-03-08T01:59:03;94878.09;;;5.23;100.00
20620;BME280;10469;42.720;23.252;2024-03-08T02:01:29;94880.31;;;5.20;100.00
20620;BME280;10469;42.720;23.252;2024-03-08T02:03:54;94865.00;;;5.15;100.00
20620;BME280;10469;42.720;23.252;2024-03-08T02:06:20;94877.84;;;5.12;100.00
20620;BME280;10469;42.720;23.252;2024-03-08T02:08:46;94882.38;;;5.24;100.00
20620;BME280;10469;42.720;23.252;2024-03-08T02:11:12;94887.09;;;5.22;100.00
20620;BME280;10469;42.720;23.252;2024-03-08T02:13:38;94883.41;;;5.23;100.00
20620;BME280;10469;42.720;23.252;2024-03-08T02:16:04;94882.75;;;5.08;100.00
20620;BME280;10469;42.720;23.252;2024-03-08T02:18:33;94877.03;;;5.04;100.00
20620;BME280;10469;42.720;23.252;2024-03-08T02:21:00;94854.94;;;4.91;100.00
20620;BME280;10469;42.720;23.252;2024-03-08T02:23:26;94879.91;;;5.10;100.00
20620;BME280;10469;42.720;23.252;2024-03-08T02:25:53;94876.66;;;5.14;100.00
20620;BME280;10469;42.720;23.252;2024-03-08T02:28:19;94880.31;;;5.13;100.00
20620;BME280;10469;42.720;23.252;2024-03-08T02:30:45;94875.59;;;5.22;100.00
20620;BME280;10469;42.720;23.252;2024-03-08T02:33:15;94853.72;;;5.07;100.00
20620;BME280;10469;42.720;23.252;2024-03-08T02:35:44;94885.88;;;5.32;100.00
20620;BME280;10469;42.720;23.252;2024-03-08T02:38:13;94875.03;;;5.33;100.00
20620;BME280;10469;42.720;23.252;2024-03-08T02:40:42;94882.78;;;5.28;100.00
20620;BME280;10469;42.720;23.252;2024-03-08T02:43:08;94884.00;;;5.39;100.00
20620;BME280;10469;42.720;23.252;2024-03-08T02:45:34;94866.41;;;5.24;100.00
20620;BME280;10469;42.720;23.252;2024-03-08T02:48:00;94891.59;;;5.42;100.00
20620;BME280;10469;42.720;23.252;2024-03-08T02:50:25;94883.22;;;5.45;100.00
20620;BME280;10469;42.720;23.252;2024-03-08T02:52:51;94888.09;;;5.48;100.00
20620;BME280;10469;42.720;23.252;2024-03-08T02:55:17;94886.88;;;5.44;100.00
20620;BME280;10469;42.720;23.252;2024-03-08T02:57:43;94889.97;;;5.41;100.00
20620;BME280;10469;42.720;23.252;2024-03-08T03:00:14;94885.25;;;5.36;100.00
20620;BME280;10469;42.720;23.252;2024-03-08T03:02:41;94890.13;;;5.39;100.00
20620;BME280;10469;42.720;23.252;2024-03-08T03:05:08;94893.81;;;5.25;100.00
20620;BME280;10469;42.720;23.252;2024-03-08T03:07:35;94888.91;;;5.22;100.00
20620;BME280;10469;42.720;23.252;2024-03-08T03:10:01;94899.78;;;5.27;100.00
20620;BME280;10469;42.720;23.252;2024-03-08T03:12:27;94875.59;;;5.22;100.00
20620;BME280;10469;42.720;23.252;2024-03-08T03:14:53;94892.97;;;5.04;100.00
20620;BME280;10469;42.720;23.252;2024-03-08T03:17:19;94897.06;;;5.07;100.00
20620;BME280;10469;42.720;23.252;2024-03-08T03:19:45;94891.13;;;5.05;100.00
20620;BME280;10469;42.720;23.252;2024-03-08T03:22:12;94900.34;;;5.09;100.00
20620;BME280;10469;42.720;23.252;2024-03-08T03:24:38;94902.00;;;5.10;100.00
20620;BME280;10469;42.720;23.252;2024-03-08T03:27:07;94903.63;;;5.11;100.00
20620;BME280;10469;42.720;23.252;2024-03-08T03:29:37;94902.97;;;4.96;100.00
20620;BME280;10469;42.720;23.252;2024-03-08T03:32:03;94914.00;;;4.99;100.00
20620;BME280;10469;42.720;23.252;2024-03-08T03:34:29;94915.44;;;4.95;100.00
20620;BME280;10469;42.720;23.252;2024-03-08T03:36:55;94921.56;;;4.96;100.00
20620;BME280;10469;42.720;23.252;2024-03-08T03:39:22;94921.19;;;4.99;100.00
20620;BME280;10469;42.720;23.252;2024-03-08T03:41:48;94917.47;;;4.87;100.00
20620;BME280;10469;42.720;23.252;2024-03-08T03:44:17;94924.44;;;4.94;100.00
20620;BME280;10469;42.720;23.252;2024-03-08T03:46:43;94936.28;;;4.92;100.00
20620;BME280;10469;42.720;23.252;2024-03-08T03:49:12;94932.53;;;4.73;100.00
20620;BME280;10469;42.720;23.252;2024-03-08T03:51:38;94930.31;;;4.83;100.00
20620;BME280;10469;42.720;23.252;2024-03-08T03:54:04;94926.28;;;4.94;100.00
20620;BME280;10469;42.720;23.252;2024-03-08T03:56:30;94930.78;;;4.93;100.00
20620;BME280;10469;42.720;23.252;2024-03-08T03:58:58;94924.59;;;4.86;100.00
20620;BME280;10469;42.720;23.252;2024-03-08T04:01:23;94926.03;;;4.82;100.00
20620;BME280;10469;42.720;23.252;2024-03-08T04:03:49;94943.97;;;4.73;100.00
20620;BME280;10469;42.720;23.252;2024-03-08T04:06:14;94937.88;;;4.80;100.00
20620;BME280;10469;42.720;23.252;2024-03-08T04:08:40;94929.47;;;4.69;100.00
20620;BME280;10469;42.720;23.252;2024-03-08T04:11:07;94938.13;;;4.91;100.00
20620;BME280;10469;42.720;23.252;2024-03-08T04:13:34;94946.69;;;4.87;100.00
20620;BME280;10469;42.720;23.252;2024-03-08T04:15:59;94949.16;;;4.95;100.00
20620;BME280;10469;42.720;23.252;2024-03-08T04:18:25;94956.25;;;4.74;100.00
20620;BME280;10469;42.720;23.252;2024-03-08T04:20:51;94951.56;;;4.76;100.00
20620;BME280;10469;42.720;23.252;2024-03-08T04:23:16;94957.53;;;4.85;100.00
20620;BME280;10469;42.720;23.252;2024-03-08T04:25:43;94954.69;;;4.93;100.00
20620;BME280;10469;42.720;23.252;2024-03-08T04:28:09;94947.44;;;4.67;100.00
20620;BME280;10469;42.720;23.252;2024-03-08T04:30:38;94962.78;;;4.78;100.00
20620;BME280;10469;42.720;23.252;2024-03-08T04:33:05;94968.09;;;4.78;100.00
20620;BME280;10469;42.720;23.252;2024-03-08T04:35:32;94969.34;;;4.76;100.00
20620;BME280;10469;42.720;23.252;2024-03-08T04:37:58;94964.72;;;4.50;100.00
20620;BME280;10469;42.720;23.252;2024-03-08T04:40:24;94983.31;;;4.50;100.00
20620;BME280;10469;42.720;23.252;2024-03-08T04:42:50;94968.59;;;4.47;100.00
20620;BME280;10469;42.720;23.252;2024-03-08T04:45:16;94971.72;;;4.64;100.00
20620;BME280;10469;42.720;23.252;2024-03-08T04:47:42;94978.69;;;4.65;100.00
20620;BME280;10469;42.720;23.252;2024-03-08T04:50:08;94989.53;;;4.36;100.00
20620;BME280;10469;42.720;23.252;2024-03-08T04:52:34;94974.44;;;4.71;100.00
20620;BME280;10469;42.720;23.252;2024-03-08T04:55:01;94967.25;;;4.65;100.00
20620;BME280;10469;42.720;23.252;2024-03-08T04:57:29;94976.19;;;4.57;100.00
20620;BME280;10469;42.720;23.252;2024-03-08T05:05:45;94988.56;;;4.37;100.00
20620;BME280;10469;42.720;23.252;2024-03-08T05:08:11;94999.25;;;4.22;100.00
20620;BME280;10469;42.720;23.252;2024-03-08T05:10:36;95000.88;;;4.16;100.00
20620;BME280;10469;42.720;23.252;2024-03-08T05:13:01;95003.00;;;4.27;100.00
20620;BME280;10469;42.720;23.252;2024-03-08T05:15:27;94993.94;;;4.15;100.00
20620;BME280;10469;42.720;23.252;2024-03-08T05:17:53;95002.56;;;3.96;100.00
20620;BME280;10469;42.720;23.252;2024-03-08T05:20:18;95019.25;;;4.18;100.00
20620;BME280;10469;42.720;23.252;2024-03-08T05:22:44;95003.91;;;4.13;100.00
20620;BME280;10469;42.720;23.252;2024-03-08T05:25:10;95020.31;;;4.23;100.00
20620;BME280;10469;42.720;23.252;2024-03-08T05:27:35;95026.69;;;4.29;100.00
20620;BME280;10469;42.720;23.252;2024-03-08T05:30:03;95030.50;;;4.20;100.00
20620;BME280;10469;42.720;23.252;2024-03-08T05:32:29;95031.78;;;4.31;100.00
20620;BME280;10469;42.720;23.252;2024-03-08T05:34:55;95030.31;;;4.21;100.00
20620;BME280;10469;42.720;23.252;2024-03-08T05:37:20;95038.25;;;4.21;100.00
20620;BME280;10469;42.720;23.252;2024-03-08T05:39:47;95026.03;;;4.27;100.00
20620;BME280;10469;42.720;23.252;2024-03-08T05:42:12;95043.94;;;4.18;100.00
20620;BME280;10469;42.720;23.252;2024-03-08T05:44:38;95038.59;;;4.40;100.00
20620;BME280;10469;42.720;23.252;2024-03-08T05:47:06;95055.09;;;4.63;100.00
20620;BME280;10469;42.720;23.252;2024-03-08T05:49:32;95046.41;;;4.48;100.00
20620;BME280;10469;42.720;23.252;2024-03-08T05:51:59;95060.56;;;4.55;100.00
20620;BME280;10469;42.720;23.252;2024-03-08T05:54:25;95063.34;;;4.47;100.00
20620;BME280;10469;42.720;23.252;2024-03-08T05:56:52;95060.63;;;4.68;100.00
20620;BME280;10469;42.720;23.252;2024-03-08T05:59:18;95069.59;;;5.02;100.00
20620;BME280;10469;42.720;23.252;2024-03-08T06:01:44;95068.38;;;5.04;100.00
20620;BME280;10469;42.720;23.252;2024-03-08T06:04:11;95070.78;;;4.93;100.00
20620;BME280;10469;42.720;23.252;2024-03-08T06:06:36;95062.06;;;5.06;100.00
20620;BME280;10469;42.720;23.252;2024-03-08T06:09:03;95055.69;;;4.65;100.00
20620;BME280;10469;42.720;23.252;2024-03-08T06:11:34;95044.53;;;4.76;100.00
20620;BME280;10469;42.720;23.252;2024-03-08T06:14:00;95072.69;;;5.06;100.00
20620;BME280;10469;42.720;23.252;2024-03-08T06:16:27;95053.47;;;4.69;100.00
20620;BME280;10469;42.720;23.252;2024-03-08T06:18:56;95076.81;;;4.73;100.00
20620;BME280;10469;42.720;23.252;2024-03-08T06:21:23;95075.53;;;4.63;100.00
20620;BME280;10469;42.720;23.252;2024-03-08T06:23:52;95087.63;;;4.72;100.00
20620;BME280;10469;42.720;23.252;2024-03-08T06:26:20;95084.53;;;4.68;100.00
20620;BME280;10469;42.720;23.252;2024-03-08T06:28:47;95080.25;;;4.67;100.00
20620;BME280;10469;42.720;23.252;2024-03-08T06:31:13;95081.81;;;4.55;100.00
20620;BME280;10469;42.720;23.252;2024-03-08T06:33:40;95084.16;;;4.71;100.00
20620;BME280;10469;42.720;23.252;2024-03-08T06:36:05;95079.59;;;4.65;100.00
20620;BME280;10469;42.720;23.252;2024-03-08T06:38:31;95083.00;;;4.87;100.00
20620;BME280;10469;42.720;23.252;2024-03-08T06:40:56;95082.41;;;4.92;100.00
20620;BME280;10469;42.720;23.252;2024-03-08T06:43:22;95078.59;;;5.01;100.00
20620;BME280;10469;42.720;23.252;2024-03-08T06:45:48;95076.28;;;4.91;100.00
20620;BME280;10469;42.720;23.252;2024-03-08T06:48:16;95077.28;;;4.84;100.00
20620;BME280;10469;42.720;23.252;2024-03-08T06:50:46;95092.00;;;4.86;100.00
20620;BME280;10469;42.720;23.252;2024-03-08T06:53:13;95100.09;;;5.06;100.00
20620;BME280;10469;42.720;23.252;2024-03-08T06:55:39;95090.06;;;5.08;100.00
20620;BME280;10469;42.720;23.252;2024-03-08T06:58:04;95076.13;;;4.99;100.00
20620;BME280;10469;42.720;23.252;2024-03-08T07:00:30;95079.91;;;5.18;100.00
20620;BME280;10469;42.720;23.252;2024-03-08T07:02:56;95098.03;;;5.49;100.00
20620;BME280;10469;42.720;23.252;2024-03-08T07:05:26;95106.69;;;5.71;100.00
20620;BME280;10469;42.720;23.252;2024-03-08T07:07:52;95101.28;;;5.45;100.00
20620;BME280;10469;42.720;23.252;2024-03-08T07:10:18;95100.94;;;5.68;100.00
20620;BME280;10469;42.720;23.252;2024-03-08T07:12:44;95085.81;;;5.82;100.00
20620;BME280;10469;42.720;23.252;2024-03-08T07:15:12;95100.75;;;5.83;100.00
20620;BME280;10469;42.720;23.252;2024-03-08T07:17:41;95112.91;;;5.92;100.00
20620;BME280;10469;42.720;23.252;2024-03-08T07:20:10;95112.25;;;5.83;100.00
20620;BME280;10469;42.720;23.252;2024-03-08T07:22:38;95112.63;;;5.87;100.00
20620;BME280;10469;42.720;23.252;2024-03-08T07:25:06;95093.47;;;5.98;100.00
20620;BME280;10469;42.720;23.252;2024-03-08T07:27:35;95105.09;;;5.84;100.00
20620;BME280;10469;42.720;23.252;2024-03-08T07:30:02;95102.00;;;5.80;100.00
20620;BME280;10469;42.720;23.252;2024-03-08T07:32:28;95106.38;;;6.01;100.00
20620;BME280;10469;42.720;23.252;2024-03-08T07:34:55;95109.22;;;5.93;100.00
20620;BME280;10469;42.720;23.252;2024-03-08T07:37:21;95081.81;;;6.06;100.00
20620;BME280;10469;42.720;23.252;2024-03-08T07:39:47;95116.22;;;6.20;100.00
20620;BME280;10469;42.720;23.252;2024-03-08T07:42:12;95110.91;;;6.20;100.00
20620;BME280;10469;42.720;23.252;2024-03-08T07:44:38;95106.78;;;6.11;100.00
20620;BME280;10469;42.720;23.252;2024-03-08T07:47:04;95112.50;;;5.95;100.00
20620;BME280;10469;42.720;23.252;2024-03-08T07:49:30;95112.31;;;6.10;100.00
20620;BME280;10469;42.720;23.252;2024-03-08T07:51:58;95101.25;;;6.26;100.00
20620;BME280;10469;42.720;23.252;2024-03-08T07:54:24;95090.84;;;6.31;100.00
20620;BME280;10469;42.720;23.252;2024-03-08T07:56:51;95105.38;;;6.48;100.00
20620;BME280;10469;42.720;23.252;2024-03-08T07:59:16;95110.44;;;6.90;100.00
20620;BME280;10469;42.720;23.252;2024-03-08T08:01:42;95110.16;;;7.24;100.00
20620;BME280;10469;42.720;23.252;2024-03-08T08:04:09;95104.13;;;7.49;100.00
20620;BME280;10469;42.720;23.252;2024-03-08T08:06:38;95108.25;;;7.51;100.00
20620;BME280;10469;42.720;23.252;2024-03-08T08:09:04;95089.28;;;7.98;100.00
20620;BME280;10469;42.720;23.252;2024-03-08T08:11:30;95099.22;;;8.22;100.00
20620;BME280;10469;42.720;23.252;2024-03-08T08:13:58;95113.94;;;8.38;100.00
20620;BME280;10469;42.720;23.252;2024-03-08T08:16:24;95104.13;;;8.25;100.00
20620;BME280;10469;42.720;23.252;2024-03-08T08:18:51;95102.03;;;8.27;100.00
20620;BME280;10469;42.720;23.252;2024-03-08T08:21:17;95108.84;;;9.23;100.00
20620;BME280;10469;42.720;23.252;2024-03-08T08:23:43;95107.19;;;9.41;100.00
20620;BME280;10469;42.720;23.252;2024-03-08T08:26:10;95096.66;;;9.46;100.00
20620;BME280;10469;42.720;23.252;2024-03-08T08:28:36;95103.44;;;9.78;100.00
20620;BME280;10469;42.720;23.252;2024-03-08T08:31:02;95110.09;;;9.58;100.00
20620;BME280;10469;42.720;23.252;2024-03-08T08:33:29;95106.06;;;9.67;100.00
20620;BME280;10469;42.720;23.252;2024-03-08T08:35:54;95113.75;;;9.45;100.00
20620;BME280;10469;42.720;23.252;2024-03-08T08:38:21;95098.22;;;10.02;100.00
20620;BME280;10469;42.720;23.252;2024-03-08T08:40:47;95097.84;;;10.28;100.00
20620;BME280;10469;42.720;23.252;2024-03-08T08:43:13;95078.53;;;10.08;100.00
20620;BME280;10469;42.720;23.252;2024-03-08T08:45:39;95099.03;;;9.36;100.00
20620;BME280;10469;42.720;23.252;2024-03-08T08:48:05;95090.25;;;9.95;100.00
20620;BME280;10469;42.720;23.252;2024-03-08T08:50:31;95095.53;;;9.35;100.00
20620;BME280;10469;42.720;23.252;2024-03-08T08:52:58;95092.66;;;9.85;100.00
20620;BME280;10469;42.720;23.252;2024-03-08T08:55:23;95074.06;;;9.90;100.00
20620;BME280;10469;42.720;23.252;2024-03-08T08:57:52;95089.75;;;11.29;100.00
20620;BME280;10469;42.720;23.252;2024-03-08T09:00:19;95074.13;;;10.79;100.00
20620;BME280;10469;42.720;23.252;2024-03-08T09:02:46;95090.47;;;11.13;100.00
20620;BME280;10469;42.720;23.252;2024-03-08T09:05:12;95089.97;;;11.91;100.00
20620;BME280;10469;42.720;23.252;2024-03-08T09:07:40;95088.81;;;12.44;100.00
20620;BME280;10469;42.720;23.252;2024-03-08T09:10:06;95067.31;;;12.78;100.00
20620;BME280;10469;42.720;23.252;2024-03-08T09:12:31;95071.47;;;13.85;100.00
20620;BME280;10469;42.720;23.252;2024-03-08T09:14:58;95081.81;;;11.86;100.00
20620;BME280;10469;42.720;23.252;2024-03-08T09:17:24;95083.56;;;10.70;100.00
20620;BME280;10469;42.720;23.252;2024-03-08T09:19:51;95067.59;;;10.51;100.00
20620;BME280;10469;42.720;23.252;2024-03-08T09:22:16;95076.59;;;10.15;100.00
20620;BME280;10469;42.720;23.252;2024-03-08T09:24:43;95070.50;;;11.09;100.00
20620;BME280;10469;42.720;23.252;2024-03-08T09:27:09;95078.66;;;12.18;100.00
20620;BME280;10469;42.720;23.252;2024-03-08T09:29:37;95077.03;;;12.34;100.00
20620;BME280;10469;42.720;23.252;2024-03-08T09:32:03;95063.34;;;15.36;99.92
20620;BME280;10469;42.720;23.252;2024-03-08T09:34:29;95062.25;;;15.37;93.12
20620;BME280;10469;42.720;23.252;2024-03-08T09:36:55;95082.19;;;13.58;92.14
20620;BME280;10469;42.720;23.252;2024-03-08T09:39:21;95073.94;;;16.00;85.05
20620;BME280;10469;42.720;23.252;2024-03-08T09:41:47;95061.44;;;15.36;84.69
20620;BME280;10469;42.720;23.252;2024-03-08T09:44:15;95058.91;;;17.32;75.39
20620;BME280;10469;42.720;23.252;2024-03-08T09:46:42;95075.06;;;17.67;71.57
20620;BME280;10469;42.720;23.252;2024-03-08T09:49:08;95075.53;;;15.91;76.87
20620;BME280;10469;42.720;23.252;2024-03-08T09:51:34;95046.44;;;14.71;83.43
20620;BME280;10469;42.720;23.252;2024-03-08T09:54:03;95072.50;;;14.06;89.22
20620;BME280;10469;42.720;23.252;2024-03-08T09:56:32;95076.41;;;13.11;93.12
20620;BME280;10469;42.720;23.252;2024-03-08T09:58:59;95087.03;;;12.67;96.48
20620;BME280;10469;42.720;23.252;2024-03-08T10:01:33;95071.94;;;11.63;100.00
20620;BME280;10469;42.720;23.252;2024-03-08T10:03:59;95084.75;;;11.21;100.00
20620;BME280;10469;42.720;23.252;2024-03-08T10:06:24;95069.94;;;9.88;100.00
20620;BME280;10469;42.720;23.252;2024-03-08T10:08:51;95067.97;;;10.90;100.00
20620;BME280;10469;42.720;23.252;2024-03-08T10:11:19;95077.84;;;9.83;100.00
20620;BME280;10469;42.720;23.252;2024-03-08T10:13:46;95085.75;;;10.38;100.00
20620;BME280;10469;42.720;23.252;2024-03-08T10:16:13;95087.63;;;10.37;100.00
20620;BME280;10469;42.720;23.252;2024-03-08T10:18:38;95086.75;;;9.95;100.00
20620;BME280;10469;42.720;23.252;2024-03-08T10:21:05;95086.38;;;9.61;100.00
20620;BME280;10469;42.720;23.252;2024-03-08T10:23:31;95093.94;;;10.66;100.00
20620;BME280;10469;42.720;23.252;2024-03-08T10:26:12;95072.81;;;11.80;100.00
20620;BME280;10469;42.720;23.252;2024-03-08T10:28:48;95067.59;;;11.22;100.00
20620;BME280;10469;42.720;23.252;2024-03-08T10:31:14;95079.06;;;11.05;100.00
20620;BME280;10469;42.720;23.252;2024-03-08T10:33:40;95081.94;;;11.04;100.00
20620;BME280;10469;42.720;23.252;2024-03-08T10:36:10;95076.84;;;11.14;100.00
20620;BME280;10469;42.720;23.252;2024-03-08T10:38:40;95072.19;;;12.02;100.00
20620;BME280;10469;42.720;23.252;2024-03-08T10:41:07;95039.41;;;12.50;100.00
20620;BME280;10469;42.720;23.252;2024-03-08T10:52:23;95053.63;;;10.85;100.00
20620;BME280;10469;42.720;23.252;2024-03-08T10:54:49;95046.25;;;12.75;100.00
20620;BME280;10469;42.720;23.252;2024-03-08T10:57:18;95059.69;;;13.91;94.48
20620;BME280;10469;42.720;23.252;2024-03-08T10:59:49;95045.78;;;15.33;86.39
20620;BME280;10469;42.720;23.252;2024-03-08T11:02:16;95044.19;;;17.58;75.74
20620;BME280;10469;42.720;23.252;2024-03-08T11:10:53;95012.97;;;20.75;58.20
20620;BME280;10469;42.720;23.252;2024-03-08T11:13:40;95013.63;;;19.68;56.70
20620;BME280;10469;42.720;23.252;2024-03-08T11:16:36;95010.00;;;19.24;56.71
20620;BME280;10469;42.720;23.252;2024-03-08T11:18:59;95020.03;;;19.00;54.74
20620;BME280;10469;42.720;23.252;2024-03-08T11:21:32;95027.00;;;16.77;62.01
20620;BME280;10469;42.720;23.252;2024-03-08T11:24:12;95012.94;;;18.65;59.12
20620;BME280;10469;42.720;23.252;2024-03-08T11:26:39;94999.66;;;18.63;56.94
20620;BME280;10469;42.720;23.252;2024-03-08T11:32:15;95009.63;;;17.04;57.03
20620;BME280;10469;42.720;23.252;2024-03-08T11:34:46;95000.69;;;15.39;67.48
20620;BME280;10469;42.720;23.252;2024-03-08T11:37:18;95012.47;;;13.40;77.33
20620;BME280;10469;42.720;23.252;2024-03-08T11:39:53;94989.13;;;12.00;83.72
20620;BME280;10469;42.720;23.252;2024-03-08T11:42:25;95006.06;;;11.32;90.52
20620;BME280;10469;42.720;23.252;2024-03-08T11:44:53;95012.88;;;11.23;93.94
20620;BME280;10469;42.720;23.252;2024-03-08T11:47:20;95004.16;;;11.85;92.26
20620;BME280;10469;42.720;23.252;2024-03-08T11:49:45;95001.16;;;14.19;83.89
20620;BME280;10469;42.720;23.252;2024-03-08T11:52:14;95005.03;;;14.28;80.45
20620;BME280;10469;42.720;23.252;2024-03-08T11:54:41;95004.69;;;14.19;84.73
20620;BME280;10469;42.720;23.252;2024-03-08T11:57:11;95002.38;;;13.52;88.30
20620;BME280;10469;42.720;23.252;2024-03-08T11:59:37;94998.81;;;14.97;82.41
20620;BME280;10469;42.720;23.252;2024-03-08T12:02:04;95011.25;;;12.92;86.25
20620;BME280;10469;42.720;23.252;2024-03-08T12:04:31;95007.50;;;11.51;94.39
20620;BME280;10469;42.720;23.252;2024-03-08T12:07:00;95002.25;;;11.16;98.70
20620;BME280;10469;42.720;23.252;2024-03-08T12:09:28;94989.22;;;12.22;95.17
20620;BME280;10469;42.720;23.252;2024-03-08T12:11:53;94995.44;;;12.95;92.16
20620;BME280;10469;42.720;23.252;2024-03-08T12:14:19;94993.72;;;13.99;82.59
20620;BME280;10469;42.720;23.252;2024-03-08T12:16:46;95001.00;;;13.27;81.74
20620;BME280;10469;42.720;23.252;2024-03-08T12:19:14;94986.13;;;13.96;86.62
20620;BME280;10469;42.720;23.252;2024-03-08T12:21:39;94990.41;;;14.88;78.61
20620;BME280;10469;42.720;23.252;2024-03-08T12:24:15;94984.63;;;15.12;71.84
20620;BME280;10469;42.720;23.252;2024-03-08T12:26:45;94989.00;;;15.91;74.49
20620;BME280;10469;42.720;23.252;2024-03-08T12:29:15;94967.19;;;14.18;79.63
20620;BME280;10469;42.720;23.252;2024-03-08T12:31:46;94988.00;;;12.86;91.25
20620;BME280;10469;42.720;23.252;2024-03-08T12:34:12;94977.06;;;13.31;88.21
20620;BME280;10469;42.720;23.252;2024-03-08T12:36:45;94974.78;;;14.53;82.27
20620;BME280;10469;42.720;23.252;2024-03-08T12:39:13;94971.91;;;13.29;88.98
20620;BME280;10469;42.720;23.252;2024-03-08T12:41:41;94965.47;;;13.79;91.60
20620;BME280;10469;42.720;23.252;2024-03-08T12:44:07;94968.22;;;13.14;91.76
20620;BME280;10469;42.720;23.252;2024-03-08T12:46:35;94981.88;;;12.01;93.16
20620;BME280;10469;42.720;23.252;2024-03-08T12:49:01;94949.13;;;12.38;92.67
20620;BME280;10469;42.720;23.252;2024-03-08T12:51:29;94972.25;;;11.88;94.04
20620;BME280;10469;42.720;23.252;2024-03-08T12:53:54;94968.69;;;10.90;99.00
20620;BME280;10469;42.720;23.252;2024-03-08T12:56:31;94967.44;;;10.81;100.00
20620;BME280;10469;42.720;23.252;2024-03-08T12:58:59;94951.50;;;10.63;100.00
20620;BME280;10469;42.720;23.252;2024-03-08T13:01:25;94974.50;;;10.05;100.00
20620;BME280;10469;42.720;23.252;2024-03-08T13:03:52;94968.59;;;10.26;100.00
20620;BME280;10469;42.720;23.252;2024-03-08T13:06:18;94961.91;;;9.94;100.00
20620;BME280;10469;42.720;23.252;2024-03-08T13:08:52;94968.25;;;9.69;100.00
20620;BME280;10469;42.720;23.252;2024-03-08T13:11:19;94980.47;;;9.65;100.00